createdAt,value
2018-04-09T00:00:38.370Z,8.50
2018-04-09T00:01:43.928Z,7.50
2018-04-09T00:02:48.967Z,7.00
2018-04-09T00:03:53.394Z,7.50
2018-04-09T00:04:57.367Z,7.75
2018-04-09T00:06:01.477Z,5.50
2018-04-09T00:07:04.764Z,6.00
2018-04-09T00:08:07.750Z,6.50
2018-04-09T00:09:13.306Z,6.50
2018-04-09T00:10:16.167Z,7.75
2018-04-09T00:11:19.893Z,6.00
2018-04-09T00:12:23.685Z,9.00
2018-04-09T00:13:29.597Z,6.50
2018-04-09T00:14:34.358Z,5.50
2018-04-09T00:15:39.506Z,6.00
2018-04-09T00:16:42.537Z,5.50
2018-04-09T00:17:47.927Z,6.00
2018-04-09T00:18:51.912Z,6.00
2018-04-09T00:19:55.817Z,7.00
2018-04-09T00:20:59.596Z,7.00
2018-04-09T00:22:03.885Z,6.00
2018-04-09T00:23:07.457Z,6.00
2018-04-09T00:24:11.527Z,7.00
2018-04-09T00:25:14.475Z,8.00
2018-04-09T00:26:18.508Z,7.00
2018-04-09T00:27:21.479Z,4.50
2018-04-09T00:28:27.761Z,6.25
2018-04-09T00:29:37.508Z,6.00
2018-04-09T00:30:41.116Z,6.00
2018-04-09T00:31:44.790Z,6.50
2018-04-09T00:32:48.088Z,5.50
2018-04-09T00:33:50.994Z,4.00
2018-04-09T00:34:54.971Z,5.00
2018-04-09T00:35:58.637Z,6.25
2018-04-09T00:37:04.826Z,4.50
2018-04-09T00:38:08.585Z,7.00
2018-04-09T00:39:11.504Z,6.00
2018-04-09T00:40:15.111Z,7.00
2018-04-09T00:41:18.135Z,9.00
2018-04-09T00:42:21.107Z,8.50
2018-04-09T00:43:25.125Z,6.50
2018-04-09T00:44:28.438Z,7.00
2018-04-09T00:45:35.263Z,7.00
2018-04-09T00:46:38.931Z,6.50
2018-04-09T00:47:43.504Z,6.75
2018-04-09T00:48:47.569Z,6.00
2018-04-09T00:49:55.726Z,7.00
2018-04-09T00:50:59.275Z,7.00
2018-04-09T00:52:03.327Z,6.75
2018-04-09T00:53:06.632Z,6.00
2018-04-09T00:54:10.804Z,6.50
2018-04-09T00:55:15.972Z,4.00
2018-04-09T00:56:19.735Z,7.00
2018-04-09T00:57:22.964Z,7.00
2018-04-09T00:58:26.478Z,6.50
2018-04-09T00:59:30.405Z,6.00
2018-04-09T01:00:34.116Z,6.00
2018-04-09T01:01:38.047Z,6.00
2018-04-09T01:02:41.344Z,7.00
2018-04-09T01:03:44.876Z,6.75
2018-04-09T01:04:48.855Z,7.00
2018-04-09T01:05:51.876Z,7.00
2018-04-09T01:06:55.866Z,7.00
2018-04-09T01:08:00.374Z,7.00
2018-04-09T01:09:03.378Z,7.50
2018-04-09T01:10:07.432Z,6.00
2018-04-09T01:11:10.381Z,7.50
2018-04-09T01:12:14.881Z,7.00
2018-04-09T01:13:21.755Z,7.00
2018-04-09T01:14:24.735Z,7.50
2018-04-09T01:15:27.993Z,6.00
2018-04-09T01:16:31.395Z,6.75
2018-04-09T01:17:35.868Z,4.00
2018-04-09T01:18:39.940Z,6.00
2018-04-09T01:19:43.562Z,7.25
2018-04-09T01:20:46.442Z,6.50
2018-04-09T01:21:49.304Z,6.75
2018-04-09T01:22:54.149Z,7.00
2018-04-09T01:23:58.613Z,6.00
2018-04-09T01:25:01.710Z,7.00
2018-04-09T01:26:06.500Z,6.25
2018-04-09T01:27:10.920Z,6.50
2018-04-09T01:28:14.154Z,6.00
2018-04-09T01:29:17.925Z,7.75
2018-04-09T01:30:21.790Z,7.25
2018-04-09T01:31:25.394Z,7.75
2018-04-09T01:32:30.372Z,6.00
2018-04-09T01:33:34.358Z,6.00
2018-04-09T01:34:38.433Z,6.25
2018-04-09T01:35:42.443Z,5.50
2018-04-09T01:36:47.499Z,6.50
2018-04-09T01:37:50.832Z,4.00
2018-04-09T01:38:54.986Z,6.25
2018-04-09T01:39:58.630Z,6.25
2018-04-09T01:41:01.721Z,4.00
2018-04-09T01:42:06.140Z,6.00
2018-04-09T01:43:09.558Z,6.00
2018-04-09T01:44:12.935Z,8.25
2018-04-09T01:45:18.087Z,7.75
2018-04-09T01:46:21.539Z,6.00
2018-04-09T01:47:24.416Z,5.00
2018-04-09T01:48:28.427Z,6.75
2018-04-09T01:49:31.303Z,7.75
2018-04-09T01:50:34.792Z,7.00
2018-04-09T01:51:38.103Z,7.25
2018-04-09T01:52:41.232Z,7.25
2018-04-09T01:53:44.214Z,6.75
2018-04-09T01:54:48.076Z,7.75
2018-04-09T01:55:51.109Z,6.25
2018-04-09T01:56:55.927Z,7.00
2018-04-09T01:57:59.518Z,6.00
2018-04-09T01:59:06.036Z,7.75
2018-04-09T02:00:11.383Z,6.50
2018-04-09T02:01:14.885Z,6.25
2018-04-09T02:02:17.789Z,8.50
2018-04-09T02:03:23.781Z,6.00
2018-04-09T02:04:28.307Z,8.50
2018-04-09T02:05:31.988Z,8.00
2018-04-09T02:06:37.004Z,7.00
2018-04-09T02:07:40.127Z,7.00
2018-04-09T02:08:44.033Z,8.00
2018-04-09T02:09:47.016Z,6.00
2018-04-09T02:10:50.207Z,7.75
2018-04-09T02:11:53.996Z,8.00
2018-04-09T02:12:57.373Z,6.50
2018-04-09T02:14:00.542Z,6.00
2018-04-09T02:15:05.652Z,6.00
2018-04-09T02:16:09.755Z,8.00
2018-04-09T02:17:12.792Z,6.00
2018-04-09T02:18:16.739Z,6.00
2018-04-09T02:19:20.045Z,4.50
2018-04-09T02:20:23.913Z,4.00
2018-04-09T02:21:26.951Z,6.00
2018-04-09T02:22:31.028Z,6.00
2018-04-09T02:23:34.560Z,8.00
2018-04-09T02:24:37.504Z,6.00
2018-04-09T02:25:40.998Z,7.00
2018-04-09T02:26:44.004Z,6.00
2018-04-09T02:27:46.961Z,7.00
2018-04-09T02:28:50.503Z,6.00
2018-04-09T02:29:53.947Z,7.50
2018-04-09T02:30:56.985Z,8.00
2018-04-09T02:32:00.253Z,7.50
2018-04-09T02:33:03.199Z,8.00
2018-04-09T02:34:06.381Z,8.00
2018-04-09T02:35:09.645Z,7.50
2018-04-09T02:36:12.658Z,8.25
2018-04-09T02:37:15.733Z,7.50
2018-04-09T02:38:19.035Z,8.00
2018-04-09T02:39:22.300Z,8.50
2018-04-09T02:40:25.316Z,8.50
2018-04-09T02:41:28.719Z,7.75
2018-04-09T02:42:31.955Z,8.00
2018-04-09T02:43:34.970Z,6.00
2018-04-09T02:44:38.278Z,6.00
2018-04-09T02:45:41.265Z,6.50
2018-04-09T02:46:44.315Z,5.00
2018-04-09T02:47:47.492Z,9.50
2018-04-09T02:48:50.492Z,8.00
2018-04-09T02:49:53.925Z,6.00
2018-04-09T02:50:57.184Z,8.00
2018-04-09T02:52:00.208Z,7.50
2018-04-09T02:53:03.576Z,7.00
2018-04-09T02:54:06.769Z,7.00
2018-04-09T02:55:12.004Z,6.00
2018-04-09T02:56:16.292Z,5.00
2018-04-09T02:57:20.279Z,6.00
2018-04-09T02:58:24.910Z,7.00
2018-04-09T02:59:27.840Z,8.00
2018-04-09T03:00:32.291Z,6.50
2018-04-09T03:01:35.492Z,9.00
2018-04-09T03:02:38.614Z,6.00
2018-04-09T03:03:41.854Z,9.00
2018-04-09T03:04:45.024Z,8.50
2018-04-09T03:05:48.232Z,9.25
2018-04-09T03:06:51.801Z,10.00
2018-04-09T03:07:54.786Z,10.50
2018-04-09T03:08:57.898Z,9.50
2018-04-09T03:10:02.053Z,8.25
2018-04-09T03:11:05.007Z,8.75
2018-04-09T03:12:08.045Z,6.00
2018-04-09T03:13:11.009Z,8.25
2018-04-09T03:14:14.009Z,7.00
2018-04-09T03:15:18.036Z,8.50
2018-04-09T03:16:21.317Z,7.50
2018-04-09T03:17:24.602Z,9.00
2018-04-09T03:19:38.199Z,5.50
2018-04-09T03:20:42.063Z,8.25
2018-04-09T03:21:44.976Z,6.00
2018-04-09T03:22:48.799Z,8.00
2018-04-09T03:23:51.967Z,9.00
2018-04-09T03:24:55.246Z,8.50
2018-04-09T03:25:58.277Z,6.50
2018-04-09T03:27:01.234Z,7.50
2018-04-09T03:28:05.683Z,8.00
2018-04-09T03:29:08.649Z,6.00
2018-04-09T03:30:11.633Z,6.00
2018-04-09T03:31:14.634Z,8.00
2018-04-09T03:32:18.138Z,4.75
2018-04-09T03:33:21.884Z,8.00
2018-04-09T03:34:24.833Z,8.00
2018-04-09T03:35:27.695Z,5.75
2018-04-09T03:36:31.646Z,7.50
2018-04-09T03:37:34.798Z,6.00
2018-04-09T03:38:37.797Z,5.25
2018-04-09T03:39:41.070Z,7.00
2018-04-09T03:40:44.041Z,4.75
2018-04-09T03:41:47.454Z,4.75
2018-04-09T03:42:50.750Z,6.00
2018-04-09T03:43:53.780Z,5.25
2018-04-09T03:44:57.388Z,10.50
2018-04-09T03:46:00.421Z,9.75
2018-04-09T03:47:03.531Z,9.00
2018-04-09T03:48:06.502Z,8.00
2018-04-09T03:49:10.702Z,9.75
2018-04-09T03:50:14.379Z,9.00
2018-04-09T03:51:19.340Z,8.50
2018-04-09T03:52:22.612Z,9.75
2018-04-09T03:53:25.476Z,8.75
2018-04-09T03:54:28.431Z,9.00
2018-04-09T03:55:32.835Z,7.00
2018-04-09T03:56:36.563Z,9.75
2018-04-09T03:57:39.452Z,6.00
2018-04-09T03:58:42.345Z,9.25
2018-04-09T03:59:46.217Z,10.50
2018-04-09T04:00:49.281Z,7.00
2018-04-09T04:01:53.746Z,8.25
2018-04-09T04:02:57.006Z,8.75
2018-04-09T04:04:00.708Z,8.00
2018-04-09T04:05:06.031Z,8.00
2018-04-09T04:06:08.995Z,8.00
2018-04-09T04:07:12.066Z,8.00
2018-04-09T04:08:15.632Z,7.50
2018-04-09T04:09:18.811Z,7.00
2018-04-09T04:10:23.255Z,9.00
2018-04-09T04:11:26.936Z,7.00
2018-04-09T04:12:31.581Z,5.50
2018-04-09T04:13:34.573Z,8.00
2018-04-09T04:14:37.749Z,6.00
2018-04-09T04:15:42.199Z,8.00
2018-04-09T04:16:45.352Z,7.50
2018-04-09T04:17:50.521Z,7.00
2018-04-09T04:18:53.798Z,7.50
2018-04-09T04:19:57.012Z,7.50
2018-04-09T04:21:01.718Z,8.00
2018-04-09T04:22:05.088Z,7.50
2018-04-09T04:23:08.683Z,7.00
2018-04-09T04:24:11.570Z,8.00
2018-04-09T04:25:15.617Z,8.00
2018-04-09T04:26:19.049Z,6.50
2018-04-09T04:27:22.579Z,9.00
2018-04-09T04:28:25.913Z,6.00
2018-04-09T04:29:30.221Z,6.00
2018-04-09T04:30:33.231Z,8.50
2018-04-09T04:31:36.205Z,8.00
2018-04-09T04:32:39.603Z,8.00
2018-04-09T04:33:42.603Z,8.00
2018-04-09T04:34:45.496Z,10.75
2018-04-09T04:35:49.202Z,7.00
2018-04-09T04:36:52.947Z,11.75
2018-04-09T04:37:58.952Z,10.25
2018-04-09T04:39:17.964Z,10.00
2018-04-09T04:40:21.021Z,8.00
2018-04-09T04:41:24.476Z,10.50
2018-04-09T04:42:27.525Z,8.00
2018-04-09T04:43:32.596Z,10.00
2018-04-09T04:44:40.168Z,9.50
2018-04-09T04:45:43.970Z,11.00
2018-04-09T04:46:47.199Z,9.00
2018-04-09T04:47:50.310Z,10.00
2018-04-09T04:48:56.098Z,6.00
2018-04-09T04:50:00.981Z,7.50
2018-04-09T04:51:06.018Z,8.00
2018-04-09T04:52:10.584Z,9.00
2018-04-09T04:53:16.647Z,8.00
2018-04-09T04:54:20.929Z,9.00
2018-04-09T04:55:25.539Z,8.00
2018-04-09T04:56:29.133Z,7.00
2018-04-09T04:57:34.554Z,8.00
2018-04-09T04:58:38.315Z,9.50
2018-04-09T04:59:41.526Z,10.00
2018-04-09T05:00:44.647Z,7.00
2018-04-09T05:01:48.021Z,7.50
2018-04-09T05:02:52.680Z,8.50
2018-04-09T05:03:55.825Z,8.50
2018-04-09T05:04:59.276Z,10.00
2018-04-09T05:06:02.370Z,7.50
2018-04-09T05:07:06.182Z,7.00
2018-04-09T05:08:09.311Z,10.25
2018-04-09T05:09:13.632Z,9.00
2018-04-09T05:10:20.396Z,9.50
2018-04-09T05:11:23.756Z,6.00
2018-04-09T05:12:26.860Z,5.75
2018-04-09T05:13:31.002Z,10.00
2018-04-09T05:14:35.369Z,8.00
2018-04-09T05:15:41.223Z,9.50
2018-04-09T05:16:44.978Z,8.00
2018-04-09T05:17:48.338Z,8.00
2018-04-09T05:18:52.939Z,9.00
2018-04-09T05:20:27.500Z,8.00
2018-04-09T05:21:32.047Z,7.00
2018-04-09T05:22:35.178Z,9.00
2018-04-09T05:23:39.489Z,10.50
2018-04-09T05:24:42.805Z,8.00
2018-04-09T05:25:45.839Z,9.00
2018-04-09T05:26:49.290Z,8.00
2018-04-09T05:27:52.588Z,10.00
2018-04-09T05:28:56.892Z,9.50
2018-04-09T05:30:00.471Z,7.00
2018-04-09T05:31:03.847Z,8.50
2018-04-09T05:32:06.986Z,7.00
2018-04-09T05:33:11.432Z,10.50
2018-04-09T05:34:17.229Z,8.00
2018-04-09T05:35:21.117Z,13.00
2018-04-09T05:36:24.329Z,10.75
2018-04-09T05:37:27.691Z,13.50
2018-04-09T05:38:30.607Z,12.00
2018-04-09T05:39:33.769Z,11.00
2018-04-09T05:40:37.739Z,14.50
2018-04-09T05:41:40.798Z,11.00
2018-04-09T05:42:44.609Z,10.25
2018-04-09T05:43:51.420Z,14.50
2018-04-09T05:44:55.430Z,12.50
2018-04-09T05:46:01.308Z,12.00
2018-04-09T05:47:06.309Z,10.50
2018-04-09T05:48:09.633Z,13.00
2018-04-09T05:49:12.641Z,12.50
2018-04-09T05:50:17.126Z,11.00
2018-04-09T05:51:20.806Z,12.00
2018-04-09T05:52:23.934Z,10.00
2018-04-09T05:53:27.449Z,13.00
2018-04-09T05:54:32.930Z,11.00
2018-04-09T05:55:36.479Z,11.00
2018-04-09T05:56:40.233Z,13.50
2018-04-09T05:57:44.629Z,15.50
2018-04-09T05:58:48.972Z,13.75
2018-04-09T05:59:55.606Z,11.50
2018-04-09T06:00:58.904Z,11.00
2018-04-09T06:02:07.396Z,9.00
2018-04-09T06:03:12.570Z,10.25
2018-04-09T06:04:18.035Z,9.75
2018-04-09T06:05:23.931Z,10.00
2018-04-09T06:06:28.189Z,11.50
2018-04-09T06:07:31.104Z,12.00
2018-04-09T06:08:35.649Z,11.00
2018-04-09T06:09:38.850Z,9.50
2018-04-09T06:10:41.886Z,11.00
2018-04-09T06:11:45.235Z,11.75
2018-04-09T06:12:50.546Z,11.00
2018-04-09T06:13:54.836Z,11.00
2018-04-09T06:14:59.531Z,12.75
2018-04-09T06:16:03.777Z,11.00
2018-04-09T06:17:07.860Z,13.25
2018-04-09T06:18:11.856Z,11.00
2018-04-09T06:19:15.802Z,11.50
2018-04-09T06:20:20.551Z,10.50
2018-04-09T06:21:23.655Z,11.00
2018-04-09T06:22:27.988Z,12.50
2018-04-09T06:23:30.893Z,11.00
2018-04-09T06:24:34.907Z,11.25
2018-04-09T06:25:38.063Z,11.25
2018-04-09T06:26:42.552Z,11.50
2018-04-09T06:27:45.641Z,12.00
2018-04-09T06:28:50.438Z,14.50
2018-04-09T06:29:54.080Z,11.50
2018-04-09T06:30:59.037Z,14.00
2018-04-09T06:32:05.824Z,12.00
2018-04-09T06:33:09.821Z,15.00
2018-04-09T06:34:12.868Z,14.00
2018-04-09T06:35:15.907Z,12.00
2018-04-09T06:36:19.108Z,15.00
2018-04-09T06:37:23.081Z,11.50
2018-04-09T06:38:26.546Z,10.75
2018-04-09T06:39:30.544Z,14.25
2018-04-09T06:40:35.509Z,14.00
2018-04-09T06:41:39.483Z,14.50
2018-04-09T06:42:42.561Z,17.75
2018-04-09T06:43:48.514Z,15.50
2018-04-09T06:44:53.888Z,15.00
2018-04-09T06:46:00.915Z,15.50
2018-04-09T06:47:07.047Z,14.25
2018-04-09T06:48:10.540Z,17.00
2018-04-09T06:49:14.955Z,22.00
2018-04-09T06:50:20.272Z,18.75
2018-04-09T06:51:26.616Z,21.75
2018-04-09T06:52:30.858Z,21.75
2018-04-09T06:53:37.233Z,18.00
2018-04-09T06:54:41.888Z,17.00
2018-04-09T06:55:46.143Z,16.75
2018-04-09T06:56:52.229Z,16.75
2018-04-09T06:57:57.337Z,19.75
2018-04-09T06:59:07.707Z,20.75
2018-04-09T07:00:11.190Z,15.00
2018-04-09T07:01:14.823Z,19.00
2018-04-09T07:02:24.279Z,18.50
2018-04-09T07:03:31.992Z,17.50
2018-04-09T07:04:35.401Z,16.25
2018-04-09T07:05:41.875Z,16.00
2018-04-09T07:06:46.529Z,16.00
2018-04-09T07:07:50.977Z,16.00
2018-04-09T07:08:54.487Z,22.25
2018-04-09T07:09:58.879Z,20.50
2018-04-09T07:11:02.822Z,18.00
2018-04-09T07:12:07.762Z,19.50
2018-04-09T07:13:12.056Z,21.00
2018-04-09T07:14:15.950Z,18.50
2018-04-09T07:15:19.006Z,19.25
2018-04-09T07:16:23.750Z,18.50
2018-04-09T07:17:27.678Z,17.00
2018-04-09T07:18:31.992Z,19.25
2018-04-09T07:19:34.979Z,18.00
2018-04-09T07:20:39.719Z,18.00
2018-04-09T07:21:43.272Z,20.50
2018-04-09T07:22:46.259Z,20.75
2018-04-09T07:23:51.148Z,21.00
2018-04-09T07:25:08.909Z,21.00
2018-04-09T07:26:13.568Z,24.00
2018-04-09T07:27:17.625Z,23.25
2018-04-09T07:28:21.098Z,20.50
2018-04-09T07:29:24.312Z,20.25
2018-04-09T07:30:30.985Z,18.00
2018-04-09T07:31:34.016Z,18.00
2018-04-09T07:32:38.709Z,16.50
2018-04-09T07:33:43.749Z,17.50
2018-04-09T07:34:49.571Z,20.00
2018-04-09T07:35:53.584Z,17.50
2018-04-09T07:36:57.770Z,20.00
2018-04-09T07:38:03.093Z,16.00
2018-04-09T07:39:09.279Z,18.25
2018-04-09T07:40:14.262Z,17.75
2018-04-09T07:41:17.256Z,18.50
2018-04-09T07:42:20.311Z,15.00
2018-04-09T07:43:26.000Z,13.00
2018-04-09T07:44:35.027Z,19.00
2018-04-09T07:45:38.128Z,18.00
2018-04-09T07:46:42.692Z,17.50
2018-04-09T07:47:46.571Z,21.00
2018-04-09T07:48:51.219Z,17.00
2018-04-09T07:49:59.359Z,17.00
2018-04-09T07:51:02.334Z,16.50
2018-04-09T07:52:06.066Z,16.75
2018-04-09T07:53:09.928Z,14.00
2018-04-09T07:54:14.779Z,14.25
2018-04-09T07:55:25.734Z,16.50
2018-04-09T07:56:33.610Z,15.50
2018-04-09T07:57:39.128Z,19.75
2018-04-09T08:00:01.655Z,16.75
2018-04-09T08:01:05.554Z,19.00
2018-04-09T08:02:13.582Z,18.00
2018-04-09T08:03:23.852Z,21.00
2018-04-09T08:04:27.849Z,18.00
2018-04-09T08:05:35.524Z,20.50
2018-04-09T08:06:39.578Z,17.00
2018-04-09T08:07:48.581Z,16.50
2018-04-09T08:08:52.968Z,16.50
2018-04-09T08:09:57.541Z,17.00
2018-04-09T08:11:03.077Z,18.25
2018-04-09T08:12:09.335Z,16.50
2018-04-09T08:13:14.181Z,13.50
2018-04-09T08:14:19.018Z,17.25
2018-04-09T08:15:24.182Z,16.50
2018-04-09T08:16:28.761Z,19.00
2018-04-09T08:17:34.398Z,14.75
2018-04-09T08:18:39.412Z,16.50
2018-04-09T08:19:48.894Z,17.75
2018-04-09T08:20:53.410Z,14.00
2018-04-09T08:21:58.370Z,17.00
2018-04-09T08:23:01.528Z,17.00
2018-04-09T08:24:04.575Z,18.75
2018-04-09T08:25:08.535Z,14.00
2018-04-09T08:26:12.354Z,15.00
2018-04-09T08:27:16.384Z,16.25
2018-04-09T08:28:22.146Z,14.25
2018-04-09T08:29:25.203Z,14.25
2018-04-09T08:30:29.381Z,18.25
2018-04-09T08:31:33.586Z,12.75
2018-04-09T08:32:37.479Z,17.00
2018-04-09T08:33:41.498Z,12.50
2018-04-09T08:34:46.381Z,12.50
2018-04-09T08:35:51.013Z,14.75
2018-04-09T08:36:54.107Z,14.00
2018-04-09T08:38:00.151Z,17.00
2018-04-09T08:39:07.401Z,14.50
2018-04-09T08:40:12.872Z,14.75
2018-04-09T08:41:17.544Z,16.75
2018-04-09T08:42:27.429Z,13.25
2018-04-09T08:43:35.026Z,16.00
2018-04-09T08:44:40.185Z,16.00
2018-04-09T08:45:44.618Z,15.75
2018-04-09T08:46:54.658Z,16.75
2018-04-09T08:47:58.828Z,17.00
2018-04-09T08:49:08.968Z,13.75
2018-04-09T08:50:13.950Z,14.75
2018-04-09T08:51:18.727Z,14.25
2018-04-09T08:52:24.558Z,16.75
2018-04-09T08:53:27.922Z,15.00
2018-04-09T08:54:31.854Z,14.00
2018-04-09T08:55:35.837Z,14.00
2018-04-09T08:56:46.459Z,15.75
2018-04-09T08:57:51.131Z,15.75
2018-04-09T08:58:54.879Z,17.25
2018-04-09T08:59:59.897Z,16.25
2018-04-09T09:01:04.950Z,14.00
2018-04-09T09:02:14.112Z,17.25
2018-04-09T09:03:17.882Z,17.50
2018-04-09T09:04:21.052Z,17.00
2018-04-09T09:05:24.758Z,18.25
2018-04-09T09:06:28.620Z,18.25
2018-04-09T09:07:32.479Z,16.50
2018-04-09T09:08:36.723Z,17.50
2018-04-09T09:09:39.736Z,16.50
2018-04-09T09:10:42.745Z,15.50
2018-04-09T09:11:45.957Z,13.00
2018-04-09T09:12:49.154Z,15.25
2018-04-09T09:13:55.196Z,15.00
2018-04-09T09:14:59.174Z,17.00
2018-04-09T09:17:24.131Z,18.50
2018-04-09T09:18:27.397Z,16.50
2018-04-09T09:19:32.050Z,13.50
2018-04-09T09:20:37.817Z,13.75
2018-04-09T09:21:41.188Z,12.75
2018-04-09T09:22:49.877Z,14.50
2018-04-09T09:23:55.484Z,13.25
2018-04-09T09:24:59.659Z,15.00
2018-04-09T09:26:02.666Z,14.00
2018-04-09T09:27:09.220Z,12.00
2018-04-09T09:28:14.310Z,14.25
2018-04-09T09:29:17.312Z,13.00
2018-04-09T09:30:24.828Z,14.00
2018-04-09T09:31:31.263Z,14.25
2018-04-09T09:32:36.749Z,14.00
2018-04-09T09:33:43.501Z,12.00
2018-04-09T09:34:46.964Z,13.00
2018-04-09T09:35:51.583Z,15.75
2018-04-09T09:36:55.519Z,15.00
2018-04-09T09:38:00.729Z,13.00
2018-04-09T09:39:09.498Z,13.25
2018-04-09T09:40:13.751Z,14.00
2018-04-09T09:41:23.216Z,14.00
2018-04-09T09:42:31.998Z,10.25
2018-04-09T09:43:35.035Z,12.00
2018-04-09T09:44:38.768Z,11.25
2018-04-09T09:46:51.032Z,11.75
2018-04-09T09:47:54.126Z,11.50
2018-04-09T09:49:01.195Z,14.00
2018-04-09T09:50:07.006Z,12.00
2018-04-09T09:51:22.089Z,13.75
2018-04-09T09:52:31.301Z,12.00
2018-04-09T09:53:40.145Z,11.75
2018-04-09T09:54:43.360Z,12.00
2018-04-09T09:55:47.889Z,10.25
2018-04-09T09:56:55.661Z,12.00
2018-04-09T09:58:01.645Z,11.25
2018-04-09T09:59:08.589Z,7.75
2018-04-09T10:00:11.869Z,10.25
2018-04-09T10:01:22.758Z,10.75
2018-04-09T10:02:29.629Z,11.00
2018-04-09T10:03:34.085Z,11.00
2018-04-09T10:04:38.081Z,8.25
2018-04-09T10:05:42.197Z,9.25
2018-04-09T10:06:46.230Z,8.00
2018-04-09T10:07:51.014Z,7.00
2018-04-09T10:08:54.837Z,9.00
2018-04-09T10:09:59.795Z,7.75
2018-04-09T10:11:03.671Z,7.00
2018-04-09T10:12:07.054Z,8.00
2018-04-09T10:13:11.576Z,9.00
2018-04-09T10:14:19.100Z,8.00
2018-04-09T10:15:39.680Z,9.00
2018-04-09T10:16:44.236Z,8.00
2018-04-09T10:17:51.705Z,10.00
2018-04-09T10:23:55.072Z,7.75
2018-04-09T10:25:01.402Z,11.50
2018-04-09T10:26:04.932Z,9.00
2018-04-09T10:27:08.042Z,7.00
2018-04-09T10:28:12.876Z,9.25
2018-04-09T10:29:17.800Z,7.75
2018-04-09T10:30:22.240Z,10.00
2018-04-09T10:31:26.308Z,8.50
2018-04-09T10:32:31.066Z,10.00
2018-04-09T10:33:35.302Z,8.50
2018-04-09T10:34:42.124Z,8.50
2018-04-09T10:35:45.215Z,10.50
2018-04-09T10:36:48.240Z,11.00
2018-04-09T10:37:51.300Z,10.00
2018-04-09T10:38:56.634Z,9.00
2018-04-09T10:40:01.973Z,7.75
2018-04-09T10:41:12.040Z,11.00
2018-04-09T10:42:15.283Z,8.00
2018-04-09T10:43:18.906Z,10.50
2018-04-09T10:44:23.622Z,8.50
2018-04-09T10:45:28.409Z,7.00
2018-04-09T10:46:32.911Z,8.25
2018-04-09T10:47:37.733Z,10.75
2018-04-09T10:48:42.944Z,10.00
2018-04-09T10:49:47.707Z,10.25
2018-04-09T10:50:51.058Z,10.25
2018-04-09T10:51:55.423Z,9.00
2018-04-09T10:52:59.038Z,8.75
2018-04-09T10:54:02.305Z,7.50
2018-04-09T10:55:05.474Z,8.50
2018-04-09T10:56:08.765Z,8.50
2018-04-09T10:57:12.043Z,8.00
2018-04-09T10:58:15.707Z,8.75
2018-04-09T10:59:18.776Z,9.75
2018-04-09T11:00:21.772Z,9.00
2018-04-09T11:01:25.050Z,7.00
2018-04-09T11:02:28.192Z,9.00
2018-04-09T11:03:31.179Z,9.50
2018-04-09T11:04:34.663Z,6.50
2018-04-09T11:05:37.685Z,9.25
2018-04-09T11:06:40.774Z,9.75
2018-04-09T11:07:43.838Z,7.75
2018-04-09T11:08:46.925Z,8.75
2018-04-09T11:09:50.004Z,8.75
2018-04-09T11:10:53.194Z,7.25
2018-04-09T11:11:56.514Z,8.75
2018-04-09T11:12:59.503Z,9.75
2018-04-09T11:14:02.721Z,6.00
2018-04-09T11:15:06.742Z,7.50
2018-04-09T11:16:10.104Z,7.00
2018-04-09T11:17:13.509Z,9.00
2018-04-09T11:18:16.638Z,10.00
2018-04-09T11:19:20.016Z,8.50
2018-04-09T11:20:23.312Z,9.00
2018-04-09T11:21:26.841Z,7.00
2018-04-09T11:22:30.985Z,7.00
2018-04-09T11:23:34.685Z,8.00
2018-04-09T11:24:37.708Z,9.00
2018-04-09T11:25:40.833Z,9.00
2018-04-09T11:26:43.939Z,7.00
2018-04-09T11:27:47.024Z,9.00
2018-04-09T11:28:50.567Z,9.50
2018-04-09T11:29:54.104Z,7.00
2018-04-09T11:30:57.477Z,7.25
2018-04-09T11:32:00.755Z,10.00
2018-04-09T11:33:03.716Z,8.25
2018-04-09T11:34:07.040Z,6.50
2018-04-09T11:35:10.007Z,10.00
2018-04-09T11:36:13.237Z,8.50
2018-04-09T11:37:16.397Z,8.50
2018-04-09T11:38:20.335Z,7.50
2018-04-09T11:39:23.358Z,7.75
2018-04-09T11:40:26.845Z,7.25
2018-04-09T11:41:30.321Z,7.75
2018-04-09T11:42:33.459Z,8.00
2018-04-09T11:43:36.921Z,7.75
2018-04-09T11:44:40.005Z,8.50
2018-04-09T11:45:43.309Z,7.25
2018-04-09T11:46:46.846Z,6.00
2018-04-09T11:47:50.002Z,7.00
2018-04-09T11:48:53.374Z,7.00
2018-04-09T11:49:56.371Z,7.50
2018-04-09T11:50:59.461Z,9.00
2018-04-09T11:52:02.444Z,8.00
2018-04-09T11:53:05.836Z,6.75
2018-04-09T11:54:08.830Z,9.00
2018-04-09T11:55:11.918Z,6.50
2018-04-09T11:56:14.927Z,7.00
2018-04-09T11:57:18.119Z,8.00
2018-04-09T11:58:21.125Z,7.50
2018-04-09T11:59:25.145Z,6.50
2018-04-09T12:00:28.594Z,6.25
2018-04-09T12:01:31.721Z,7.50
2018-04-09T12:02:34.792Z,7.75
2018-04-09T12:03:37.897Z,9.00
2018-04-09T12:04:42.845Z,9.50
2018-04-09T12:05:46.305Z,9.00
2018-04-09T12:06:49.482Z,5.75
2018-04-09T12:07:52.553Z,6.25
2018-04-09T12:08:55.704Z,6.00
2018-04-09T12:09:58.755Z,5.75
2018-04-09T12:11:01.819Z,6.00
2018-04-09T12:12:05.324Z,9.00
2018-04-09T12:13:08.361Z,5.75
2018-04-09T12:14:11.416Z,5.75
2018-04-09T12:15:14.426Z,5.25
2018-04-09T12:16:17.500Z,7.50
2018-04-09T12:17:20.513Z,5.75
2018-04-09T12:18:25.330Z,9.00
2018-04-09T12:19:28.390Z,6.00
2018-04-09T12:20:31.470Z,5.50
2018-04-09T12:21:34.517Z,6.75
2018-04-09T12:22:37.541Z,9.00
2018-04-09T12:23:40.610Z,7.00
2018-04-09T12:24:44.005Z,9.00
2018-04-09T12:25:47.099Z,7.50
2018-04-09T12:26:50.370Z,7.00
2018-04-09T12:27:54.302Z,6.50
2018-04-09T12:28:57.331Z,6.25
2018-04-09T12:30:00.298Z,6.00
2018-04-09T12:31:03.681Z,6.50
2018-04-09T12:32:06.774Z,5.75
2018-04-09T12:33:09.747Z,6.75
2018-04-09T12:34:12.786Z,6.50
2018-04-09T12:35:15.828Z,6.75
2018-04-09T12:36:18.928Z,6.00
2018-04-09T12:37:22.362Z,7.50
2018-04-09T12:38:25.391Z,7.00
2018-04-09T12:39:28.431Z,6.75
2018-04-09T12:40:31.923Z,6.25
2018-04-09T12:41:35.718Z,6.00
2018-04-09T12:42:40.477Z,6.25
2018-04-09T12:43:43.580Z,6.25
2018-04-09T12:44:46.575Z,6.00
2018-04-09T12:45:49.651Z,6.00
2018-04-09T12:46:52.715Z,6.00
2018-04-09T12:47:55.696Z,6.75
2018-04-09T12:48:59.123Z,6.25
2018-04-09T12:50:02.225Z,6.00
2018-04-09T12:51:05.252Z,6.50
2018-04-09T12:52:08.225Z,6.00
2018-04-09T12:53:11.228Z,6.25
2018-04-09T12:54:14.243Z,5.75
2018-04-09T12:55:17.583Z,6.00
2018-04-09T12:56:20.604Z,6.50
2018-04-09T12:57:23.587Z,6.50
2018-04-09T12:58:26.575Z,6.00
2018-04-09T12:59:29.544Z,6.00
2018-04-09T13:00:32.550Z,5.75
2018-04-09T13:01:35.554Z,6.00
2018-04-09T13:02:38.579Z,6.00
2018-04-09T13:03:41.580Z,5.75
2018-04-09T13:04:44.563Z,5.00
2018-04-09T13:05:47.528Z,5.25
2018-04-09T13:06:51.007Z,6.00
2018-04-09T13:07:54.010Z,5.75
2018-04-09T13:08:57.041Z,5.00
2018-04-09T13:10:00.032Z,6.00
2018-04-09T13:11:03.102Z,7.00
2018-04-09T13:12:06.122Z,7.00
2018-04-09T13:13:09.525Z,5.50
2018-04-09T13:14:15.012Z,6.00
2018-04-09T13:15:19.176Z,5.75
2018-04-09T13:16:22.255Z,5.50
2018-04-09T13:17:25.324Z,6.50
2018-04-09T13:18:29.036Z,5.00
2018-04-09T13:19:32.456Z,5.00
2018-04-09T13:20:35.379Z,5.75
2018-04-09T13:21:38.472Z,3.00
2018-04-09T13:22:41.662Z,5.25
2018-04-09T13:23:46.292Z,5.25
2018-04-09T13:24:49.639Z,6.00
2018-04-09T13:25:54.686Z,5.50
2018-04-09T13:26:57.688Z,5.50
2018-04-09T13:28:00.711Z,5.25
2018-04-09T13:29:03.675Z,4.00
2018-04-09T13:30:06.625Z,5.00
2018-04-09T13:31:09.553Z,3.50
2018-04-09T13:32:12.938Z,5.00
2018-04-09T13:33:15.975Z,5.00
2018-04-09T13:34:18.941Z,5.75
2018-04-09T13:35:21.932Z,5.50
2018-04-09T13:36:25.012Z,3.50
2018-04-09T13:37:28.109Z,5.50
2018-04-09T13:38:32.462Z,4.50
2018-04-09T13:39:35.571Z,6.00
2018-04-09T13:40:38.588Z,5.25
2018-04-09T13:41:41.702Z,4.00
2018-04-09T13:42:44.684Z,5.25
2018-04-09T13:43:47.834Z,4.00
2018-04-09T13:44:51.209Z,6.00
2018-04-09T13:45:55.011Z,5.50
2018-04-09T13:46:58.406Z,5.25
2018-04-09T13:48:03.486Z,4.50
2018-04-09T13:49:07.265Z,5.00
2018-04-09T13:50:10.407Z,6.00
2018-04-09T13:51:13.734Z,5.25
2018-04-09T13:52:20.214Z,5.00
2018-04-09T13:53:24.400Z,4.00
2018-04-09T13:54:29.555Z,4.00
2018-04-09T13:55:32.973Z,5.25
2018-04-09T13:56:41.738Z,6.25
2018-04-09T13:57:46.839Z,6.25
2018-04-09T13:58:53.059Z,5.50
2018-04-09T13:59:56.581Z,5.00
2018-04-09T14:01:02.075Z,5.25
2018-04-09T14:02:05.397Z,6.50
2018-04-09T14:03:08.440Z,5.00
2018-04-09T14:04:11.764Z,6.75
2018-04-09T14:05:14.796Z,6.00
2018-04-09T14:06:17.902Z,6.00
2018-04-09T14:07:20.895Z,4.75
2018-04-09T14:08:24.236Z,6.00
2018-04-09T14:09:27.191Z,5.75
2018-04-09T14:10:30.701Z,6.00
2018-04-09T14:11:33.766Z,6.50
2018-04-09T14:12:36.720Z,6.50
2018-04-09T14:13:39.747Z,6.00
2018-04-09T14:14:43.400Z,7.75